Giltner, Nebraska
Current Conditions -  °F | °C
As of 1:15 PM on Thursday 18 Dec 2014 (Local Time) from KAUH Reporting Station
Overcast Overcast  
Wind Chill: 24°   Ceiling: 1100
Heat Index: 29°   Visibility: 10mi
Dew Point: 26°   Wind: 5mph
Humidity: 88%   Direction: 220°SW
Pressure: 30.16"   Gusts: NA
Location:  40.77°N, 98.15°W
Report Text: KAUH 181915Z AUTO 22004KT 10SM OVC011 M02/M03 A3016 RMK AO2 T10171035
Loading
Personal Weather Stations






























Interactive Weather Map New forecast layout! Learn more

10-Day Weather Forecast

Advertisements
Track Severe Weather on mobile